sensor_id;sensor_type;location;lat;lon;timestamp;P1;durP1;ratioP1;P2;durP2;ratioP2
54977;SDS011;40873;47.522;19.106;2023-02-21T00:00:38;14.07;;;7.20;;
54977;SDS011;40873;47.522;19.106;2023-02-21T00:03:24;13.70;;;6.55;;
54977;SDS011;40873;47.522;19.106;2023-02-21T00:06:09;14.82;;;6.90;;
54977;SDS011;40873;47.522;19.106;2023-02-21T00:08:55;12.07;;;6.93;;
54977;SDS011;40873;47.522;19.106;2023-02-21T00:11:44;12.85;;;6.38;;
54977;SDS011;40873;47.522;19.106;2023-02-21T00:14:29;12.50;;;6.13;;
54977;SDS011;40873;47.522;19.106;2023-02-21T00:17:15;18.70;;;6.00;;
54977;SDS011;40873;47.522;19.106;2023-02-21T00:20:01;12.38;;;6.07;;
54977;SDS011;40873;47.522;19.106;2023-02-21T00:22:46;18.58;;;6.95;;
54977;SDS011;40873;47.522;19.106;2023-02-21T00:25:32;13.63;;;6.38;;
54977;SDS011;40873;47.522;19.106;2023-02-21T00:28:18;15.77;;;6.38;;
54977;SDS011;40873;47.522;19.106;2023-02-21T00:31:04;13.48;;;7.18;;
54977;SDS011;40873;47.522;19.106;2023-02-21T00:33:50;11.15;;;6.30;;
54977;SDS011;40873;47.522;19.106;2023-02-21T00:36:36;8.02;;;4.03;;
54977;SDS011;40873;47.522;19.106;2023-02-21T00:39:22;10.73;;;5.30;;
54977;SDS011;40873;47.522;19.106;2023-02-21T00:42:07;10.23;;;5.78;;
54977;SDS011;40873;47.522;19.106;2023-02-21T00:44:53;14.38;;;7.10;;
54977;SDS011;40873;47.522;19.106;2023-02-21T00:47:39;11.60;;;5.43;;
54977;SDS011;40873;47.522;19.106;2023-02-21T00:50:24;8.68;;;4.32;;
54977;SDS011;40873;47.522;19.106;2023-02-21T00:53:10;10.40;;;5.57;;
54977;SDS011;40873;47.522;19.106;2023-02-21T00:55:56;9.57;;;4.47;;
54977;SDS011;40873;47.522;19.106;2023-02-21T00:58:41;9.60;;;4.50;;
54977;SDS011;40873;47.522;19.106;2023-02-21T01:01:27;12.25;;;5.75;;
54977;SDS011;40873;47.522;19.106;2023-02-21T01:04:13;11.27;;;4.65;;
54977;SDS011;40873;47.522;19.106;2023-02-21T01:06:58;11.75;;;4.78;;
54977;SDS011;40873;47.522;19.106;2023-02-21T01:09:44;10.85;;;5.07;;
54977;SDS011;40873;47.522;19.106;2023-02-21T01:12:30;12.80;;;4.93;;
54977;SDS011;40873;47.522;19.106;2023-02-21T01:15:15;10.95;;;4.70;;
54977;SDS011;40873;47.522;19.106;2023-02-21T01:18:01;9.13;;;4.75;;
54977;SDS011;40873;47.522;19.106;2023-02-21T01:20:47;10.15;;;4.38;;
54977;SDS011;40873;47.522;19.106;2023-02-21T01:23:33;8.65;;;4.10;;
54977;SDS011;40873;47.522;19.106;2023-02-21T01:26:18;10.15;;;5.60;;
54977;SDS011;40873;47.522;19.106;2023-02-21T01:29:03;8.32;;;4.03;;
54977;SDS011;40873;47.522;19.106;2023-02-21T01:31:49;6.97;;;4.30;;
54977;SDS011;40873;47.522;19.106;2023-02-21T01:34:35;15.02;;;4.88;;
54977;SDS011;40873;47.522;19.106;2023-02-21T01:37:21;9.85;;;4.20;;
54977;SDS011;40873;47.522;19.106;2023-02-21T01:40:07;7.55;;;3.42;;
54977;SDS011;40873;47.522;19.106;2023-02-21T01:42:53;14.80;;;5.80;;
54977;SDS011;40873;47.522;19.106;2023-02-21T01:45:41;8.73;;;3.92;;
54977;SDS011;40873;47.522;19.106;2023-02-21T01:48:31;12.10;;;4.03;;
54977;SDS011;40873;47.522;19.106;2023-02-21T01:51:20;8.75;;;4.25;;
54977;SDS011;40873;47.522;19.106;2023-02-21T01:54:13;10.55;;;4.40;;
54977;SDS011;40873;47.522;19.106;2023-02-21T01:57:00;11.68;;;4.35;;
54977;SDS011;40873;47.522;19.106;2023-02-21T01:59:48;9.63;;;3.60;;
54977;SDS011;40873;47.522;19.106;2023-02-21T02:03:18;7.20;;;3.20;;
54977;SDS011;40873;47.522;19.106;2023-02-21T02:05:48;5.50;;;2.83;;
54977;SDS011;40873;47.522;19.106;2023-02-21T02:08:38;5.40;;;3.20;;
54977;SDS011;40873;47.522;19.106;2023-02-21T02:17:56;6.43;;;2.53;;
54977;SDS011;40873;47.522;19.106;2023-02-21T02:26:58;5.07;;;1.70;;
54977;SDS011;40873;47.522;19.106;2023-02-21T02:32:51;4.65;;;2.50;;
54977;SDS011;40873;47.522;19.106;2023-02-21T02:35:31;5.93;;;2.25;;
54977;SDS011;40873;47.522;19.106;2023-02-21T02:38:02;5.45;;;2.20;;
54977;SDS011;40873;47.522;19.106;2023-02-21T02:44:05;6.47;;;2.45;;
54977;SDS011;40873;47.522;19.106;2023-02-21T02:46:47;4.25;;;2.15;;
54977;SDS011;40873;47.522;19.106;2023-02-21T02:51:45;3.15;;;1.55;;
54977;SDS011;40873;47.522;19.106;2023-02-21T02:54:12;5.20;;;2.38;;
54977;SDS011;40873;47.522;19.106;2023-02-21T02:56:39;4.63;;;2.22;;
54977;SDS011;40873;47.522;19.106;2023-02-21T02:59:07;5.68;;;2.13;;
54977;SDS011;40873;47.522;19.106;2023-02-21T03:07:57;6.57;;;2.22;;
54977;SDS011;40873;47.522;19.106;2023-02-21T03:10:37;3.42;;;1.67;;
54977;SDS011;40873;47.522;19.106;2023-02-21T03:13:17;3.63;;;1.42;;
54977;SDS011;40873;47.522;19.106;2023-02-21T03:15:55;5.18;;;1.48;;
54977;SDS011;40873;47.522;19.106;2023-02-21T03:18:48;3.90;;;1.92;;
54977;SDS011;40873;47.522;19.106;2023-02-21T03:21:57;3.53;;;1.50;;
54977;SDS011;40873;47.522;19.106;2023-02-21T03:24:26;5.60;;;1.83;;
54977;SDS011;40873;47.522;19.106;2023-02-21T03:26:59;3.05;;;1.33;;
54977;SDS011;40873;47.522;19.106;2023-02-21T03:29:30;3.60;;;1.58;;
54977;SDS011;40873;47.522;19.106;2023-02-21T03:35:07;4.22;;;1.42;;
54977;SDS011;40873;47.522;19.106;2023-02-21T03:37:36;3.85;;;1.75;;
54977;SDS011;40873;47.522;19.106;2023-02-21T03:40:09;6.43;;;0.82;;
54977;SDS011;40873;47.522;19.106;2023-02-21T03:42:40;2.67;;;1.10;;
54977;SDS011;40873;47.522;19.106;2023-02-21T03:45:08;3.33;;;1.33;;
54977;SDS011;40873;47.522;19.106;2023-02-21T03:47:35;3.50;;;1.10;;
54977;SDS011;40873;47.522;19.106;2023-02-21T03:50:03;2.05;;;1.08;;
54977;SDS011;40873;47.522;19.106;2023-02-21T03:52:30;3.13;;;1.15;;
54977;SDS011;40873;47.522;19.106;2023-02-21T03:54:57;2.28;;;1.08;;
54977;SDS011;40873;47.522;19.106;2023-02-21T03:57:24;2.03;;;0.90;;
54977;SDS011;40873;47.522;19.106;2023-02-21T03:59:51;5.43;;;1.40;;
54977;SDS011;40873;47.522;19.106;2023-02-21T04:02:18;5.25;;;0.93;;
54977;SDS011;40873;47.522;19.106;2023-02-21T04:04:45;2.88;;;1.05;;
54977;SDS011;40873;47.522;19.106;2023-02-21T04:07:14;5.30;;;0.93;;
54977;SDS011;40873;47.522;19.106;2023-02-21T04:09:43;5.15;;;1.17;;
54977;SDS011;40873;47.522;19.106;2023-02-21T04:12:10;5.35;;;1.20;;
54977;SDS011;40873;47.522;19.106;2023-02-21T04:14:37;3.53;;;1.30;;
54977;SDS011;40873;47.522;19.106;2023-02-21T04:17:04;6.72;;;1.33;;
54977;SDS011;40873;47.522;19.106;2023-02-21T04:19:31;2.92;;;1.10;;
54977;SDS011;40873;47.522;19.106;2023-02-21T04:21:58;3.75;;;1.35;;
54977;SDS011;40873;47.522;19.106;2023-02-21T04:24:25;3.58;;;1.27;;
54977;SDS011;40873;47.522;19.106;2023-02-21T04:26:52;2.35;;;1.10;;
54977;SDS011;40873;47.522;19.106;2023-02-21T04:29:19;3.17;;;1.50;;
54977;SDS011;40873;47.522;19.106;2023-02-21T04:31:46;3.95;;;1.10;;
54977;SDS011;40873;47.522;19.106;2023-02-21T04:34:13;3.60;;;1.50;;
54977;SDS011;40873;47.522;19.106;2023-02-21T04:36:40;5.10;;;1.65;;
54977;SDS011;40873;47.522;19.106;2023-02-21T04:39:08;5.07;;;2.22;;
54977;SDS011;40873;47.522;19.106;2023-02-21T04:41:35;4.82;;;2.47;;
54977;SDS011;40873;47.522;19.106;2023-02-21T04:44:02;5.75;;;2.30;;
54977;SDS011;40873;47.522;19.106;2023-02-21T04:46:28;4.35;;;2.25;;
54977;SDS011;40873;47.522;19.106;2023-02-21T04:48:56;3.72;;;1.48;;
54977;SDS011;40873;47.522;19.106;2023-02-21T04:51:23;3.13;;;1.33;;
54977;SDS011;40873;47.522;19.106;2023-02-21T04:53:51;2.28;;;1.00;;
54977;SDS011;40873;47.522;19.106;2023-02-21T04:56:20;3.67;;;1.45;;
54977;SDS011;40873;47.522;19.106;2023-02-21T04:58:49;5.90;;;1.60;;
54977;SDS011;40873;47.522;19.106;2023-02-21T05:01:17;2.35;;;1.25;;
54977;SDS011;40873;47.522;19.106;2023-02-21T05:03:46;2.00;;;1.00;;
54977;SDS011;40873;47.522;19.106;2023-02-21T05:06:20;4.85;;;1.52;;
54977;SDS011;40873;47.522;19.106;2023-02-21T05:08:49;3.28;;;1.77;;
54977;SDS011;40873;47.522;19.106;2023-02-21T05:11:17;3.33;;;1.15;;
54977;SDS011;40873;47.522;19.106;2023-02-21T05:13:45;4.00;;;1.40;;
54977;SDS011;40873;47.522;19.106;2023-02-21T05:16:12;5.75;;;1.38;;
54977;SDS011;40873;47.522;19.106;2023-02-21T05:18:40;4.20;;;1.33;;
54977;SDS011;40873;47.522;19.106;2023-02-21T05:21:08;2.83;;;0.98;;
54977;SDS011;40873;47.522;19.106;2023-02-21T05:23:37;4.03;;;1.48;;
54977;SDS011;40873;47.522;19.106;2023-02-21T05:26:07;4.57;;;1.42;;
54977;SDS011;40873;47.522;19.106;2023-02-21T05:28:38;3.05;;;1.05;;
54977;SDS011;40873;47.522;19.106;2023-02-21T05:31:06;5.45;;;1.20;;
54977;SDS011;40873;47.522;19.106;2023-02-21T05:33:34;3.70;;;1.17;;
54977;SDS011;40873;47.522;19.106;2023-02-21T05:36:01;4.78;;;1.33;;
54977;SDS011;40873;47.522;19.106;2023-02-21T05:38:28;4.00;;;1.50;;
54977;SDS011;40873;47.522;19.106;2023-02-21T05:40:55;2.55;;;1.25;;
54977;SDS011;40873;47.522;19.106;2023-02-21T05:43:22;3.55;;;0.93;;
54977;SDS011;40873;47.522;19.106;2023-02-21T05:45:49;2.35;;;1.02;;
54977;SDS011;40873;47.522;19.106;2023-02-21T05:48:16;2.78;;;1.40;;
54977;SDS011;40873;47.522;19.106;2023-02-21T05:50:43;3.22;;;0.93;;
54977;SDS011;40873;47.522;19.106;2023-02-21T05:53:11;2.88;;;1.00;;
54977;SDS011;40873;47.522;19.106;2023-02-21T05:55:37;4.63;;;1.00;;
54977;SDS011;40873;47.522;19.106;2023-02-21T05:58:04;4.70;;;1.45;;
54977;SDS011;40873;47.522;19.106;2023-02-21T06:00:31;2.10;;;1.10;;
54977;SDS011;40873;47.522;19.106;2023-02-21T06:02:58;2.92;;;1.13;;
54977;SDS011;40873;47.522;19.106;2023-02-21T06:05:29;4.78;;;1.60;;
54977;SDS011;40873;47.522;19.106;2023-02-21T06:07:57;2.60;;;1.00;;
54977;SDS011;40873;47.522;19.106;2023-02-21T06:10:25;2.83;;;0.95;;
54977;SDS011;40873;47.522;19.106;2023-02-21T06:12:52;3.38;;;1.35;;
54977;SDS011;40873;47.522;19.106;2023-02-21T06:15:18;2.47;;;1.30;;
54977;SDS011;40873;47.522;19.106;2023-02-21T06:17:46;3.63;;;1.00;;
54977;SDS011;40873;47.522;19.106;2023-02-21T06:20:13;2.83;;;1.33;;
54977;SDS011;40873;47.522;19.106;2023-02-21T06:22:42;2.67;;;1.27;;
54977;SDS011;40873;47.522;19.106;2023-02-21T06:25:09;4.25;;;1.45;;
54977;SDS011;40873;47.522;19.106;2023-02-21T06:27:36;5.13;;;2.17;;
54977;SDS011;40873;47.522;19.106;2023-02-21T06:30:04;2.72;;;1.50;;
54977;SDS011;40873;47.522;19.106;2023-02-21T06:32:32;4.50;;;1.38;;
54977;SDS011;40873;47.522;19.106;2023-02-21T06:34:59;2.88;;;1.15;;
54977;SDS011;40873;47.522;19.106;2023-02-21T06:37:26;3.85;;;1.50;;
54977;SDS011;40873;47.522;19.106;2023-02-21T06:39:54;4.55;;;1.58;;
54977;SDS011;40873;47.522;19.106;2023-02-21T06:42:21;3.38;;;1.30;;
54977;SDS011;40873;47.522;19.106;2023-02-21T06:44:48;5.57;;;1.52;;
54977;SDS011;40873;47.522;19.106;2023-02-21T06:47:16;4.18;;;1.70;;
54977;SDS011;40873;47.522;19.106;2023-02-21T06:49:43;3.15;;;1.63;;
54977;SDS011;40873;47.522;19.106;2023-02-21T06:52:10;3.75;;;1.63;;
54977;SDS011;40873;47.522;19.106;2023-02-21T06:54:37;7.30;;;1.50;;
54977;SDS011;40873;47.522;19.106;2023-02-21T06:57:04;2.53;;;1.15;;
54977;SDS011;40873;47.522;19.106;2023-02-21T06:59:31;4.85;;;1.48;;
54977;SDS011;40873;47.522;19.106;2023-02-21T07:01:58;4.65;;;1.98;;
54977;SDS011;40873;47.522;19.106;2023-02-21T07:04:25;4.10;;;1.63;;
54977;SDS011;40873;47.522;19.106;2023-02-21T07:06:53;4.95;;;1.55;;
54977;SDS011;40873;47.522;19.106;2023-02-21T07:09:20;3.60;;;1.23;;
54977;SDS011;40873;47.522;19.106;2023-02-21T07:11:47;3.75;;;1.38;;
54977;SDS011;40873;47.522;19.106;2023-02-21T07:14:14;2.28;;;1.25;;
54977;SDS011;40873;47.522;19.106;2023-02-21T07:16:41;6.82;;;1.98;;
54977;SDS011;40873;47.522;19.106;2023-02-21T07:19:08;3.38;;;1.80;;
54977;SDS011;40873;47.522;19.106;2023-02-21T07:21:35;6.10;;;1.70;;
54977;SDS011;40873;47.522;19.106;2023-02-21T07:24:01;3.15;;;1.40;;
54977;SDS011;40873;47.522;19.106;2023-02-21T07:26:29;3.65;;;2.05;;
54977;SDS011;40873;47.522;19.106;2023-02-21T07:28:55;9.30;;;2.05;;
54977;SDS011;40873;47.522;19.106;2023-02-21T07:31:22;4.38;;;1.88;;
54977;SDS011;40873;47.522;19.106;2023-02-21T07:33:49;5.40;;;2.13;;
54977;SDS011;40873;47.522;19.106;2023-02-21T07:36:17;4.68;;;1.88;;
54977;SDS011;40873;47.522;19.106;2023-02-21T07:38:43;3.80;;;1.40;;
54977;SDS011;40873;47.522;19.106;2023-02-21T07:41:12;3.67;;;1.75;;
54977;SDS011;40873;47.522;19.106;2023-02-21T07:43:40;5.68;;;1.30;;
54977;SDS011;40873;47.522;19.106;2023-02-21T07:46:12;6.88;;;1.83;;
54977;SDS011;40873;47.522;19.106;2023-02-21T07:48:40;3.15;;;1.10;;
54977;SDS011;40873;47.522;19.106;2023-02-21T07:51:07;5.10;;;1.77;;
54977;SDS011;40873;47.522;19.106;2023-02-21T07:53:35;5.25;;;1.30;;
54977;SDS011;40873;47.522;19.106;2023-02-21T07:56:03;4.93;;;1.63;;
54977;SDS011;40873;47.522;19.106;2023-02-21T07:58:30;3.03;;;1.13;;
54977;SDS011;40873;47.522;19.106;2023-02-21T08:00:58;2.88;;;1.20;;
54977;SDS011;40873;47.522;19.106;2023-02-21T08:03:25;3.70;;;1.58;;
54977;SDS011;40873;47.522;19.106;2023-02-21T08:05:52;5.95;;;1.92;;
54977;SDS011;40873;47.522;19.106;2023-02-21T08:08:18;3.13;;;0.95;;
54977;SDS011;40873;47.522;19.106;2023-02-21T08:10:46;4.60;;;1.65;;
54977;SDS011;40873;47.522;19.106;2023-02-21T08:13:12;5.22;;;1.40;;
54977;SDS011;40873;47.522;19.106;2023-02-21T08:15:39;2.33;;;1.38;;
54977;SDS011;40873;47.522;19.106;2023-02-21T08:18:10;5.07;;;1.50;;
54977;SDS011;40873;47.522;19.106;2023-02-21T08:20:44;6.70;;;2.03;;
54977;SDS011;40873;47.522;19.106;2023-02-21T08:23:11;3.08;;;1.48;;
54977;SDS011;40873;47.522;19.106;2023-02-21T08:25:38;2.22;;;1.38;;
54977;SDS011;40873;47.522;19.106;2023-02-21T08:28:05;4.32;;;1.23;;
54977;SDS011;40873;47.522;19.106;2023-02-21T08:30:32;2.45;;;1.60;;
54977;SDS011;40873;47.522;19.106;2023-02-21T08:32:59;4.97;;;1.38;;
54977;SDS011;40873;47.522;19.106;2023-02-21T08:35:26;2.20;;;1.00;;
54977;SDS011;40873;47.522;19.106;2023-02-21T08:37:53;3.60;;;1.42;;
54977;SDS011;40873;47.522;19.106;2023-02-21T08:40:29;4.35;;;1.63;;
54977;SDS011;40873;47.522;19.106;2023-02-21T08:42:57;3.70;;;1.30;;
54977;SDS011;40873;47.522;19.106;2023-02-21T08:45:26;3.78;;;1.52;;
54977;SDS011;40873;47.522;19.106;2023-02-21T08:47:56;4.90;;;1.60;;
54977;SDS011;40873;47.522;19.106;2023-02-21T08:50:24;2.85;;;1.50;;
54977;SDS011;40873;47.522;19.106;2023-02-21T08:52:53;4.13;;;1.33;;
54977;SDS011;40873;47.522;19.106;2023-02-21T08:55:20;4.45;;;1.75;;
54977;SDS011;40873;47.522;19.106;2023-02-21T08:57:48;4.53;;;1.55;;
54977;SDS011;40873;47.522;19.106;2023-02-21T09:00:18;5.10;;;1.92;;
54977;SDS011;40873;47.522;19.106;2023-02-21T09:02:49;2.88;;;1.30;;
54977;SDS011;40873;47.522;19.106;2023-02-21T09:05:17;2.53;;;1.50;;
54977;SDS011;40873;47.522;19.106;2023-02-21T09:07:47;4.13;;;1.42;;
54977;SDS011;40873;47.522;19.106;2023-02-21T09:10:16;4.30;;;1.77;;
54977;SDS011;40873;47.522;19.106;2023-02-21T09:12:43;3.15;;;1.27;;
54977;SDS011;40873;47.522;19.106;2023-02-21T09:15:13;3.28;;;1.23;;
54977;SDS011;40873;47.522;19.106;2023-02-21T09:17:41;4.07;;;1.35;;
54977;SDS011;40873;47.522;19.106;2023-02-21T09:20:09;2.22;;;1.17;;
54977;SDS011;40873;47.522;19.106;2023-02-21T09:22:41;2.75;;;1.13;;
54977;SDS011;40873;47.522;19.106;2023-02-21T09:25:11;2.92;;;1.20;;
54977;SDS011;40873;47.522;19.106;2023-02-21T09:27:38;2.83;;;1.10;;
54977;SDS011;40873;47.522;19.106;2023-02-21T09:30:07;2.83;;;1.40;;
54977;SDS011;40873;47.522;19.106;2023-02-21T09:32:37;3.63;;;1.42;;
54977;SDS011;40873;47.522;19.106;2023-02-21T09:35:05;4.18;;;1.33;;
54977;SDS011;40873;47.522;19.106;2023-02-21T09:37:36;2.83;;;1.42;;
54977;SDS011;40873;47.522;19.106;2023-02-21T09:40:15;5.40;;;1.50;;
54977;SDS011;40873;47.522;19.106;2023-02-21T09:42:51;5.78;;;1.33;;
54977;SDS011;40873;47.522;19.106;2023-02-21T09:45:20;3.80;;;1.55;;
54977;SDS011;40873;47.522;19.106;2023-02-21T09:47:48;2.55;;;1.42;;
54977;SDS011;40873;47.522;19.106;2023-02-21T09:50:20;2.88;;;1.33;;
54977;SDS011;40873;47.522;19.106;2023-02-21T09:52:54;4.03;;;1.35;;
54977;SDS011;40873;47.522;19.106;2023-02-21T09:58:01;5.15;;;1.60;;
54977;SDS011;40873;47.522;19.106;2023-02-21T10:00:34;5.43;;;1.20;;
54977;SDS011;40873;47.522;19.106;2023-02-21T10:05:45;7.30;;;2.25;;
54977;SDS011;40873;47.522;19.106;2023-02-21T10:10:50;3.17;;;1.25;;
54977;SDS011;40873;47.522;19.106;2023-02-21T10:21:56;3.40;;;1.65;;
54977;SDS011;40873;47.522;19.106;2023-02-21T10:24:18;3.15;;;1.63;;
54977;SDS011;40873;47.522;19.106;2023-02-21T10:29:23;6.00;;;1.47;;
54977;SDS011;40873;47.522;19.106;2023-02-21T10:31:54;4.13;;;1.65;;
54977;SDS011;40873;47.522;19.106;2023-02-21T10:34:26;3.88;;;1.20;;
54977;SDS011;40873;47.522;19.106;2023-02-21T10:36:55;3.30;;;1.10;;
54977;SDS011;40873;47.522;19.106;2023-02-21T10:39:33;4.40;;;1.48;;
54977;SDS011;40873;47.522;19.106;2023-02-21T10:42:10;3.70;;;1.45;;
54977;SDS011;40873;47.522;19.106;2023-02-21T10:44:40;4.57;;;1.42;;
54977;SDS011;40873;47.522;19.106;2023-02-21T10:47:18;2.97;;;0.90;;
54977;SDS011;40873;47.522;19.106;2023-02-21T10:49:58;3.47;;;1.38;;
54977;SDS011;40873;47.522;19.106;2023-02-21T10:52:26;3.05;;;1.05;;
54977;SDS011;40873;47.522;19.106;2023-02-21T10:57:30;2.35;;;1.17;;
54977;SDS011;40873;47.522;19.106;2023-02-21T10:59:59;3.83;;;0.95;;
54977;SDS011;40873;47.522;19.106;2023-02-21T11:02:36;4.30;;;1.45;;
54977;SDS011;40873;47.522;19.106;2023-02-21T11:05:15;3.65;;;1.30;;
54977;SDS011;40873;47.522;19.106;2023-02-21T11:08:02;3.47;;;1.20;;
54977;SDS011;40873;47.522;19.106;2023-02-21T11:10:34;3.67;;;1.45;;
54977;SDS011;40873;47.522;19.106;2023-02-21T11:13:19;4.20;;;1.33;;
54977;SDS011;40873;47.522;19.106;2023-02-21T11:15:48;9.50;;;1.45;;
54977;SDS011;40873;47.522;19.106;2023-02-21T11:18:32;3.05;;;1.30;;
54977;SDS011;40873;47.522;19.106;2023-02-21T11:21:09;3.78;;;1.52;;
54977;SDS011;40873;47.522;19.106;2023-02-21T11:23:55;2.60;;;1.30;;
54977;SDS011;40873;47.522;19.106;2023-02-21T11:26:34;2.58;;;1.50;;
54977;SDS011;40873;47.522;19.106;2023-02-21T11:29:09;3.08;;;1.40;;
54977;SDS011;40873;47.522;19.106;2023-02-21T11:31:39;2.92;;;1.08;;
54977;SDS011;40873;47.522;19.106;2023-02-21T11:34:08;3.72;;;2.00;;
54977;SDS011;40873;47.522;19.106;2023-02-21T11:36:38;3.40;;;1.55;;
54977;SDS011;40873;47.522;19.106;2023-02-21T11:44:24;3.55;;;1.10;;
54977;SDS011;40873;47.522;19.106;2023-02-21T11:50:03;5.32;;;1.50;;
54977;SDS011;40873;47.522;19.106;2023-02-21T11:52:36;3.30;;;1.55;;
54977;SDS011;40873;47.522;19.106;2023-02-21T11:55:16;3.38;;;1.45;;
54977;SDS011;40873;47.522;19.106;2023-02-21T11:58:14;4.53;;;1.20;;
54977;SDS011;40873;47.522;19.106;2023-02-21T12:01:10;4.13;;;1.73;;
54977;SDS011;40873;47.522;19.106;2023-02-21T12:09:18;4.57;;;1.50;;
54977;SDS011;40873;47.522;19.106;2023-02-21T12:12:01;3.30;;;1.70;;
54977;SDS011;40873;47.522;19.106;2023-02-21T12:31:47;4.70;;;1.58;;
54977;SDS011;40873;47.522;19.106;2023-02-21T12:48:09;4.38;;;1.60;;
54977;SDS011;40873;47.522;19.106;2023-02-21T12:50:45;3.08;;;1.35;;
54977;SDS011;40873;47.522;19.106;2023-02-21T12:55:55;4.20;;;1.38;;
54977;SDS011;40873;47.522;19.106;2023-02-21T12:58:39;3.58;;;1.48;;
54977;SDS011;40873;47.522;19.106;2023-02-21T13:01:14;4.43;;;1.87;;
54977;SDS011;40873;47.522;19.106;2023-02-21T13:03:50;3.78;;;1.77;;
54977;SDS011;40873;47.522;19.106;2023-02-21T13:06:49;4.07;;;1.67;;
54977;SDS011;40873;47.522;19.106;2023-02-21T13:09:41;4.10;;;1.30;;
54977;SDS011;40873;47.522;19.106;2023-02-21T13:12:20;2.58;;;1.50;;
54977;SDS011;40873;47.522;19.106;2023-02-21T13:14:54;5.15;;;1.55;;
54977;SDS011;40873;47.522;19.106;2023-02-21T13:17:24;4.15;;;1.40;;
54977;SDS011;40873;47.522;19.106;2023-02-21T13:19:59;2.75;;;1.40;;
54977;SDS011;40873;47.522;19.106;2023-02-21T13:28:20;2.08;;;0.90;;
54977;SDS011;40873;47.522;19.106;2023-02-21T13:30:50;3.00;;;1.45;;
54977;SDS011;40873;47.522;19.106;2023-02-21T13:33:26;1.60;;;1.00;;
54977;SDS011;40873;47.522;19.106;2023-02-21T13:36:44;3.40;;;1.25;;
54977;SDS011;40873;47.522;19.106;2023-02-21T13:39:10;4.43;;;1.48;;
54977;SDS011;40873;47.522;19.106;2023-02-21T13:41:53;2.40;;;1.02;;
54977;SDS011;40873;47.522;19.106;2023-02-21T13:44:49;2.75;;;1.23;;
54977;SDS011;40873;47.522;19.106;2023-02-21T13:47:21;3.85;;;1.25;;
54977;SDS011;40873;47.522;19.106;2023-02-21T13:52:27;4.43;;;1.40;;
54977;SDS011;40873;47.522;19.106;2023-02-21T13:57:35;4.40;;;1.48;;
54977;SDS011;40873;47.522;19.106;2023-02-21T14:02:57;4.22;;;1.17;;
54977;SDS011;40873;47.522;19.106;2023-02-21T14:10:50;4.22;;;1.80;;
54977;SDS011;40873;47.522;19.106;2023-02-21T14:13:26;2.10;;;0.82;;
54977;SDS011;40873;47.522;19.106;2023-02-21T14:18:50;2.53;;;1.10;;
54977;SDS011;40873;47.522;19.106;2023-02-21T14:21:23;3.35;;;0.90;;
54977;SDS011;40873;47.522;19.106;2023-02-21T14:23:58;3.22;;;0.95;;
54977;SDS011;40873;47.522;19.106;2023-02-21T14:26:33;2.75;;;1.10;;
54977;SDS011;40873;47.522;19.106;2023-02-21T14:29:09;2.38;;;0.98;;
54977;SDS011;40873;47.522;19.106;2023-02-21T14:31:53;4.20;;;1.23;;
54977;SDS011;40873;47.522;19.106;2023-02-21T14:34:23;2.45;;;1.90;;
54977;SDS011;40873;47.522;19.106;2023-02-21T14:36:56;2.03;;;0.80;;
54977;SDS011;40873;47.522;19.106;2023-02-21T14:39:29;2.13;;;1.27;;
54977;SDS011;40873;47.522;19.106;2023-02-21T14:56:37;4.88;;;1.00;;
54977;SDS011;40873;47.522;19.106;2023-02-21T15:02:17;2.83;;;1.58;;
54977;SDS011;40873;47.522;19.106;2023-02-21T15:04:45;4.47;;;1.33;;
54977;SDS011;40873;47.522;19.106;2023-02-21T15:07:46;1.65;;;0.80;;
54977;SDS011;40873;47.522;19.106;2023-02-21T15:10:27;3.25;;;0.93;;
54977;SDS011;40873;47.522;19.106;2023-02-21T15:13:00;2.87;;;1.30;;
54977;SDS011;40873;47.522;19.106;2023-02-21T15:15:30;5.07;;;1.70;;
54977;SDS011;40873;47.522;19.106;2023-02-21T15:18:01;1.58;;;0.95;;
54977;SDS011;40873;47.522;19.106;2023-02-21T15:20:35;1.60;;;0.80;;
54977;SDS011;40873;47.522;19.106;2023-02-21T15:23:11;3.78;;;1.02;;
54977;SDS011;40873;47.522;19.106;2023-02-21T15:25:43;4.63;;;0.98;;
54977;SDS011;40873;47.522;19.106;2023-02-21T15:28:20;2.33;;;0.95;;
54977;SDS011;40873;47.522;19.106;2023-02-21T15:33:26;2.25;;;1.10;;
54977;SDS011;40873;47.522;19.106;2023-02-21T15:35:56;5.43;;;1.10;;
54977;SDS011;40873;47.522;19.106;2023-02-21T15:44:07;1.85;;;1.02;;
54977;SDS011;40873;47.522;19.106;2023-02-21T15:49:08;2.03;;;0.75;;
54977;SDS011;40873;47.522;19.106;2023-02-21T15:51:51;1.75;;;1.17;;
54977;SDS011;40873;47.522;19.106;2023-02-21T15:54:29;2.42;;;0.80;;
54977;SDS011;40873;47.522;19.106;2023-02-21T15:57:01;2.60;;;1.10;;
54977;SDS011;40873;47.522;19.106;2023-02-21T15:59:37;2.45;;;1.58;;
54977;SDS011;40873;47.522;19.106;2023-02-21T16:04:35;3.58;;;1.30;;
54977;SDS011;40873;47.522;19.106;2023-02-21T16:07:04;2.30;;;1.08;;
54977;SDS011;40873;47.522;19.106;2023-02-21T16:09:33;3.03;;;1.02;;
54977;SDS011;40873;47.522;19.106;2023-02-21T16:12:05;2.30;;;0.95;;
54977;SDS011;40873;47.522;19.106;2023-02-21T16:17:35;3.50;;;1.17;;
54977;SDS011;40873;47.522;19.106;2023-02-21T16:25:53;4.13;;;1.27;;
54977;SDS011;40873;47.522;19.106;2023-02-21T16:28:30;1.95;;;1.08;;
54977;SDS011;40873;47.522;19.106;2023-02-21T16:30:58;4.03;;;0.90;;
54977;SDS011;40873;47.522;19.106;2023-02-21T16:33:27;2.83;;;0.85;;
54977;SDS011;40873;47.522;19.106;2023-02-21T16:35:55;2.13;;;0.95;;
54977;SDS011;40873;47.522;19.106;2023-02-21T16:38:24;3.60;;;1.52;;
54977;SDS011;40873;47.522;19.106;2023-02-21T16:40:52;1.83;;;1.23;;
54977;SDS011;40873;47.522;19.106;2023-02-21T16:43:26;3.92;;;1.23;;
54977;SDS011;40873;47.522;19.106;2023-02-21T16:45:55;3.67;;;0.88;;
54977;SDS011;40873;47.522;19.106;2023-02-21T16:48:25;3.70;;;0.90;;
54977;SDS011;40873;47.522;19.106;2023-02-21T16:50:59;3.38;;;1.40;;
54977;SDS011;40873;47.522;19.106;2023-02-21T16:53:30;6.88;;;1.88;;
54977;SDS011;40873;47.522;19.106;2023-02-21T16:55:58;4.40;;;1.45;;
54977;SDS011;40873;47.522;19.106;2023-02-21T16:58:27;1.75;;;0.88;;
54977;SDS011;40873;47.522;19.106;2023-02-21T17:00:57;3.80;;;1.20;;
54977;SDS011;40873;47.522;19.106;2023-02-21T17:03:27;4.53;;;1.15;;
54977;SDS011;40873;47.522;19.106;2023-02-21T17:05:54;2.85;;;1.33;;
54977;SDS011;40873;47.522;19.106;2023-02-21T17:08:23;6.50;;;1.30;;
54977;SDS011;40873;47.522;19.106;2023-02-21T17:10:51;2.30;;;1.20;;
54977;SDS011;40873;47.522;19.106;2023-02-21T17:13:18;5.05;;;1.10;;
54977;SDS011;40873;47.522;19.106;2023-02-21T17:15:45;2.70;;;1.42;;
54977;SDS011;40873;47.522;19.106;2023-02-21T17:18:13;2.92;;;1.40;;
54977;SDS011;40873;47.522;19.106;2023-02-21T17:20:40;4.30;;;1.70;;
54977;SDS011;40873;47.522;19.106;2023-02-21T17:23:07;4.35;;;1.63;;
54977;SDS011;40873;47.522;19.106;2023-02-21T17:25:34;7.10;;;1.90;;
54977;SDS011;40873;47.522;19.106;2023-02-21T17:28:02;3.30;;;1.63;;
54977;SDS011;40873;47.522;19.106;2023-02-21T17:30:32;4.05;;;1.40;;
54977;SDS011;40873;47.522;19.106;2023-02-21T17:32:59;7.82;;;1.55;;
54977;SDS011;40873;47.522;19.106;2023-02-21T17:35:26;3.42;;;1.40;;
54977;SDS011;40873;47.522;19.106;2023-02-21T17:37:54;3.63;;;1.65;;
54977;SDS011;40873;47.522;19.106;2023-02-21T17:40:21;5.20;;;2.05;;
54977;SDS011;40873;47.522;19.106;2023-02-21T17:42:48;6.78;;;1.60;;
54977;SDS011;40873;47.522;19.106;2023-02-21T17:45:16;3.45;;;1.70;;
54977;SDS011;40873;47.522;19.106;2023-02-21T17:47:45;5.07;;;1.95;;
54977;SDS011;40873;47.522;19.106;2023-02-21T17:50:13;5.30;;;1.90;;